^^
Saratoga-Weather Station Historical Data
Daily Summary for September 8, 2021 Units:  Both    English   Metric
Daily Weekly Monthly Yearly Custom
  High: Low: Average:
Temperature: 68 °F /  20 °C 58.3 °F /  14.6 °C 62.8 °F /  17.1 °C
Dew Point: 61.9 °F /  16.6 °C 55.2 °F /  12.9 °C 58.3 °F /  14.6 °C
Humidity: 93% 72% 86%
Wind Speed: 10.1mph /  16.3km/h - 0.9mph /  1.5km/h
Wind Gust: 13mph /  20.9km/h - -
Wind- - SSW
Pressure: 30.1 in /  1020.7 hPa 30 in /  1017.3 hPa -
Precipitation: 0.12 in /  3.0 mm    
Historical Graphs
 
 
Tabular Data for September 8, 2021
Time Temperature Dew Point Pressure Wind Wind Speed Wind Gust Humidity Rainfall Rate (Hourly) solar
00:01 63.9 °F /  17.7 °C 57.6 °F /  14.2 °C 30in /  1017.3hPa Calm     80% 0in /  0.0mm 0 W/m2
00:06 63.7 °F /  17.6 °C 57.4 °F /  14.1 °C 30.1in /  1017.6hPa Calm     80% 0in /  0.0mm 0 W/m2
00:11 63.7 °F /  17.6 °C 57.4 °F /  14.1 °C 30.1in /  1017.6hPa Calm     80% 0in /  0.0mm 0 W/m2
00:16 63.7 °F /  17.6 °C 57.4 °F /  14.1 °C 30.1in /  1017.6hPa Calm     80% 0in /  0.0mm 0 W/m2
00:21 63.7 °F /  17.6 °C 57.4 °F /  14.1 °C 30.1in /  1017.6hPa Calm     80% 0in /  0.0mm 0 W/m2
00:26 63.7 °F /  17.6 °C 57.4 °F /  14.1 °C 30.1in /  1017.6hPa Calm     80% 0in /  0.0mm 0 W/m2
00:31 63.7 °F /  17.6 °C 57.7 °F /  14.3 °C 30.1in /  1017.6hPa Calm     81% 0in /  0.0mm 0 W/m2
00:36 63.5 °F /  17.5 °C 57.6 °F /  14.2 °C 30.1in /  1017.6hPa Calm     81% 0in /  0.0mm 0 W/m2
00:41 63.3 °F /  17.4 °C 57.4 °F /  14.1 °C 30.1in /  1017.6hPa Calm     81% 0in /  0.0mm 0 W/m2
00:46 63.1 °F /  17.3 °C 57.2 °F /  14 °C 30.1in /  1017.6hPa Calm     81% 0in /  0.0mm 0 W/m2
00:51 63.1 °F /  17.3 °C 57.2 °F /  14 °C 30.1in /  1017.6hPa Calm     81% 0in /  0.0mm 0 W/m2
00:56 63.1 °F /  17.3 °C 57.2 °F /  14 °C 30.1in /  1017.6hPa Calm     81% 0in /  0.0mm 0 W/m2
01:01 63.1 °F /  17.3 °C 57.6 °F /  14.2 °C 30.1in /  1017.6hPa Calm     82% 0in /  0.0mm 0 W/m2
01:06 63.1 °F /  17.3 °C 57.6 °F /  14.2 °C 30.1in /  1017.6hPa Calm     82% 0in /  0.0mm 0 W/m2
01:11 63.1 °F /  17.3 °C 57.6 °F /  14.2 °C 30.1in /  1017.6hPa Calm     82% 0in /  0.0mm 0 W/m2
01:16 63.1 °F /  17.3 °C 57.6 °F /  14.2 °C 30.1in /  1017.6hPa Calm     82% 0in /  0.0mm 0 W/m2
01:21 63 °F /  17.2 °C 57.7 °F /  14.3 °C 30.1in /  1017.6hPa Calm   1mph /  1.6km/h 83% 0in /  0.0mm 0 W/m2
01:26 63 °F /  17.2 °C 57.7 °F /  14.3 °C 30.1in /  1017.6hPa Calm   1mph /  1.6km/h 83% 0in /  0.0mm 0 W/m2
01:31 62.8 °F /  17.1 °C 57.6 °F /  14.2 °C 30.1in /  1017.6hPa Calm     83% 0in /  0.0mm 0 W/m2
01:37 62.6 °F /  17 °C 57.4 °F /  14.1 °C 30.1in /  1017.6hPa Calm   1mph /  1.6km/h 83% 0in /  0.0mm 0 W/m2
01:42 62.4 °F /  16.9 °C 57.6 °F /  14.2 °C 30.1in /  1017.6hPa WNW 0.9mph /  1.4km/h 2mph /  3.2km/h 84% 0in /  0.0mm 0 W/m2
01:47 62.1 °F /  16.7 °C 57.2 °F /  14 °C 30.1in /  1017.6hPa Calm   1mph /  1.6km/h 84% 0in /  0.0mm 0 W/m2
01:52 61.9 °F /  16.6 °C 57 °F /  13.9 °C 30.1in /  1017.6hPa Calm   2mph /  3.2km/h 84% 0in /  0.0mm 0 W/m2
01:57 61.7 °F /  16.5 °C 57.2 °F /  14 °C 30.1in /  1017.6hPa Calm   1mph /  1.6km/h 85% 0in /  0.0mm 0 W/m2
02:02 61.5 °F /  16.4 °C 57 °F /  13.9 °C 30in /  1017.3hPa WNW 0.9mph /  1.4km/h 2mph /  3.2km/h 85% 0in /  0.0mm 0 W/m2
02:07 61.2 °F /  16.2 °C 56.7 °F /  13.7 °C 30in /  1017.3hPa Calm     85% 0in /  0.0mm 0 W/m2
02:12 61 °F /  16.1 °C 56.8 °F /  13.8 °C 30in /  1017.3hPa Calm     86% 0in /  0.0mm 0 W/m2
02:17 61 °F /  16.1 °C 56.8 °F /  13.8 °C 30.1in /  1017.6hPa Calm     86% 0in /  0.0mm 0 W/m2
02:22 61 °F /  16.1 °C 56.8 °F /  13.8 °C 30in /  1017.3hPa SE 0.9mph /  1.4km/h 2mph /  3.2km/h 86% 0in /  0.0mm 0 W/m2
02:27 61 °F /  16.1 °C 56.8 °F /  13.8 °C 30in /  1017.3hPa Calm   1mph /  1.6km/h 86% 0in /  0.0mm 0 W/m2
02:32 61 °F /  16.1 °C 56.8 °F /  13.8 °C 30.1in /  1017.6hPa Calm     86% 0in /  0.0mm 0 W/m2
02:37 61 °F /  16.1 °C 56.8 °F /  13.8 °C 30.1in /  1017.6hPa Calm     86% 0in /  0.0mm 0 W/m2
02:42 61 °F /  16.1 °C 56.8 °F /  13.8 °C 30.1in /  1017.6hPa Calm     86% 0in /  0.0mm 0 W/m2
02:47 61 °F /  16.1 °C 56.8 °F /  13.8 °C 30.1in /  1017.6hPa Calm     86% 0in /  0.0mm 0 W/m2
02:52 61 °F /  16.1 °C 56.8 °F /  13.8 °C 30.1in /  1017.6hPa Calm     86% 0in /  0.0mm 0 W/m2
02:57 61 °F /  16.1 °C 56.5 °F /  13.6 °C 30.1in /  1017.6hPa Calm     85% 0in /  0.0mm 0 W/m2
03:02 60.8 °F /  16 °C 56.7 °F /  13.7 °C 30.1in /  1017.6hPa Calm     86% 0in /  0.0mm 0 W/m2
03:07 60.6 °F /  15.9 °C 56.5 °F /  13.6 °C 30.1in /  1017.6hPa Calm     86% 0in /  0.0mm 0 W/m2
03:12 60.6 °F /  15.9 °C 56.5 °F /  13.6 °C 30.1in /  1017.6hPa SE 0.9mph /  1.4km/h 2mph /  3.2km/h 86% 0in /  0.0mm 0 W/m2
03:17 60.6 °F /  15.9 °C 56.5 °F /  13.6 °C 30.1in /  1017.6hPa Calm     86% 0in /  0.0mm 0 W/m2
03:22 60.6 °F /  15.9 °C 56.5 °F /  13.6 °C 30.1in /  1017.6hPa Calm   2mph /  3.2km/h 86% 0in /  0.0mm 0 W/m2
03:27 60.6 °F /  15.9 °C 56.5 °F /  13.6 °C 30.1in /  1017.6hPa Calm     86% 0in /  0.0mm 0 W/m2
03:32 60.4 °F /  15.8 °C 56.5 °F /  13.6 °C 30.1in /  1017.6hPa Calm     87% 0in /  0.0mm 0 W/m2
03:37 60.4 °F /  15.8 °C 56.5 °F /  13.6 °C 30.1in /  1017.6hPa Calm     87% 0in /  0.0mm 0 W/m2
03:42 60.4 °F /  15.8 °C 56.5 °F /  13.6 °C 30.1in /  1017.6hPa Calm     87% 0in /  0.0mm 0 W/m2
03:47 60.4 °F /  15.8 °C 56.5 °F /  13.6 °C 30.1in /  1017.6hPa Calm   1mph /  1.6km/h 87% 0in /  0.0mm 0 W/m2
03:52 60.4 °F /  15.8 °C 56.5 °F /  13.6 °C 30.1in /  1017.6hPa Calm     87% 0in /  0.0mm 0 W/m2
03:57 60.3 °F /  15.7 °C 56.3 °F /  13.5 °C 30.1in /  1017.6hPa Calm   1mph /  1.6km/h 87% 0in /  0.0mm 0 W/m2
04:02 60.1 °F /  15.6 °C 56.1 °F /  13.4 °C 30.1in /  1017.6hPa Calm     87% 0in /  0.0mm 0 W/m2
04:07 60.1 °F /  15.6 °C 56.1 °F /  13.4 °C 30.1in /  1017.6hPa Calm     87% 0in /  0.0mm 0 W/m2
04:12 60.1 °F /  15.6 °C 56.1 °F /  13.4 °C 30.1in /  1017.6hPa Calm     87% 0in /  0.0mm 0 W/m2
04:17 59.7 °F /  15.4 °C 55.8 °F /  13.2 °C 30in /  1017.3hPa Calm     87% 0in /  0.0mm 0 W/m2
04:22 59.5 °F /  15.3 °C 55.6 °F /  13.1 °C 30.1in /  1017.6hPa Calm     87% 0in /  0.0mm 0 W/m2
04:27 59.5 °F /  15.3 °C 55.6 °F /  13.1 °C 30in /  1017.3hPa Calm     87% 0in /  0.0mm 0 W/m2
04:32 59.4 °F /  15.2 °C 55.4 °F /  13 °C 30in /  1017.3hPa Calm     87% 0in /  0.0mm 0 W/m2
04:37 59.4 °F /  15.2 °C 55.4 °F /  13 °C 30.1in /  1017.6hPa Calm     87% 0in /  0.0mm 0 W/m2
04:42 59.2 °F /  15.1 °C 55.4 °F /  13 °C 30.1in /  1017.6hPa Calm     87% 0in /  0.0mm 0 W/m2
04:47 59.2 °F /  15.1 °C 55.6 °F /  13.1 °C 30.1in /  1017.6hPa Calm     88% 0in /  0.0mm 0 W/m2
04:52 59 °F /  15 °C 55.4 °F /  13 °C 30.1in /  1017.6hPa Calm     88% 0in /  0.0mm 0 W/m2
04:57 58.8 °F /  14.9 °C 55.2 °F /  12.9 °C 30.1in /  1017.6hPa Calm     88% 0in /  0.0mm 0 W/m2
05:02 58.8 °F /  14.9 °C 55.2 °F /  12.9 °C 30.1in /  1017.6hPa Calm     88% 0in /  0.0mm 0 W/m2
05:07 58.6 °F /  14.8 °C 55.4 °F /  13 °C 30.1in /  1017.6hPa Calm     89% 0in /  0.0mm 0 W/m2
05:12 58.6 °F /  14.8 °C 55.4 °F /  13 °C 30.1in /  1017.6hPa Calm     89% 0in /  0.0mm 0 W/m2
05:17 58.6 °F /  14.8 °C 55.4 °F /  13 °C 30.1in /  1017.6hPa Calm     89% 0in /  0.0mm 0 W/m2
05:22 58.6 °F /  14.8 °C 55.4 °F /  13 °C 30.1in /  1017.6hPa Calm     89% 0in /  0.0mm 0 W/m2
05:27 58.6 °F /  14.8 °C 55.4 °F /  13 °C 30in /  1017.3hPa Calm     89% 0in /  0.0mm 0 W/m2
05:32 58.6 °F /  14.8 °C 55.4 °F /  13 °C 30.1in /  1017.6hPa Calm     89% 0in /  0.0mm 0 W/m2
05:37 58.6 °F /  14.8 °C 55.8 °F /  13.2 °C 30.1in /  1017.6hPa Calm     90% 0in /  0.0mm 0 W/m2
05:42 58.6 °F /  14.8 °C 55.8 °F /  13.2 °C 30.1in /  1017.6hPa Calm     90% 0in /  0.0mm 0 W/m2
05:47 58.8 °F /  14.9 °C 55.6 °F /  13.1 °C 30.1in /  1017.6hPa Calm     89% 0in /  0.0mm 0 W/m2
05:52 59.2 °F /  15.1 °C 56.3 °F /  13.5 °C 30.1in /  1017.6hPa ESE 2mph /  3.2km/h 4mph /  6.4km/h 90% 0in /  0.0mm 0 W/m2
05:57 59.4 °F /  15.2 °C 56.1 °F /  13.4 °C 30.1in /  1017.6hPa ESE 2mph /  3.2km/h 2mph /  3.2km/h 89% 0in /  0.0mm 0 W/m2
06:02 59.5 °F /  15.3 °C 56.3 °F /  13.5 °C 30.1in /  1017.6hPa Calm   4mph /  6.4km/h 89% 0in /  0.0mm 5 W/m2
06:07 59.5 °F /  15.3 °C 55.9 °F /  13.3 °C 30.1in /  1017.6hPa ESE 0.9mph /  1.4km/h 2mph /  3.2km/h 88% 0in /  0.0mm 9 W/m2
06:12 59.5 °F /  15.3 °C 55.9 °F /  13.3 °C 30.1in /  1017.6hPa Calm     88% 0in /  0.0mm 12 W/m2
06:17 59.5 °F /  15.3 °C 55.9 °F /  13.3 °C 30.1in /  1017.6hPa Calm   2mph /  3.2km/h 88% 0in /  0.0mm 16 W/m2
06:22 59.5 °F /  15.3 °C 55.9 °F /  13.3 °C 30.1in /  1017.6hPa Calm     88% 0in /  0.0mm 21 W/m2
06:27 59.7 °F /  15.4 °C 56.5 °F /  13.6 °C 30.1in /  1017.6hPa Calm     89% 0in /  0.0mm 28 W/m2
06:32 59.7 °F /  15.4 °C 56.5 °F /  13.6 °C 30.1in /  1017.6hPa Calm     89% 0in /  0.0mm 35 W/m2
06:37 59.7 °F /  15.4 °C 56.5 °F /  13.6 °C 30.1in /  1017.6hPa ESE 0.9mph /  1.4km/h 1mph /  1.6km/h 89% 0in /  0.0mm 44 W/m2
06:42 59.9 °F /  15.5 °C 56.7 °F /  13.7 °C 30.1in /  1017.6hPa Calm     89% 0in /  0.0mm 49 W/m2
06:47 60.1 °F /  15.6 °C 56.5 °F /  13.6 °C 30.1in /  1017.6hPa Calm     88% 0in /  0.0mm 56 W/m2
06:52 60.3 °F /  15.7 °C 57 °F /  13.9 °C 30.1in /  1017.6hPa Calm     89% 0in /  0.0mm 65 W/m2
06:57 60.4 °F /  15.8 °C 57.2 °F /  14 °C 30.1in /  1018.0hPa Calm     89% 0in /  0.0mm 62 W/m2
07:02 60.4 °F /  15.8 °C 56.8 °F /  13.8 °C 30.1in /  1018.0hPa Calm     88% 0in /  0.0mm 72 W/m2
07:07 60.6 °F /  15.9 °C 57 °F /  13.9 °C 30.1in /  1018.0hPa Calm     88% 0in /  0.0mm 79 W/m2
07:12 61.2 °F /  16.2 °C 57.6 °F /  14.2 °C 30.1in /  1018.0hPa Calm   2mph /  3.2km/h 88% 0in /  0.0mm 77 W/m2
07:17 61.3 °F /  16.3 °C 57.7 °F /  14.3 °C 30.1in /  1018.3hPa Calm     88% 0in /  0.0mm 67 W/m2
07:22 61.5 °F /  16.4 °C 57.9 °F /  14.4 °C 30.1in /  1018.3hPa Calm   2mph /  3.2km/h 88% 0in /  0.0mm 63 W/m2
07:27 61.5 °F /  16.4 °C 57.6 °F /  14.2 °C 30.1in /  1018.3hPa Calm     87% 0in /  0.0mm 74 W/m2
07:32 61.7 °F /  16.5 °C 57.7 °F /  14.3 °C 30.1in /  1018.3hPa Calm     87% 0in /  0.0mm 81 W/m2
07:37 61.9 °F /  16.6 °C 57.9 °F /  14.4 °C 30.1in /  1018.3hPa Calm     87% 0in /  0.0mm 81 W/m2
07:42 62.1 °F /  16.7 °C 58.1 °F /  14.5 °C 30.1in /  1018.3hPa Calm   1mph /  1.6km/h 87% 0in /  0.0mm 81 W/m2
07:47 62.2 °F /  16.8 °C 58.3 °F /  14.6 °C 30.1in /  1018.6hPa Calm     87% 0in /  0.0mm 74 W/m2
07:52 62.2 °F /  16.8 °C 57.9 °F /  14.4 °C 30.1in /  1018.6hPa Calm   1mph /  1.6km/h 86% 0in /  0.0mm 62 W/m2
07:57 62.2 °F /  16.8 °C 57.9 °F /  14.4 °C 30.1in /  1018.6hPa Calm     86% 0in /  0.0mm 47 W/m2
08:02 62.4 °F /  16.9 °C 58.1 °F /  14.5 °C 30.1in /  1018.6hPa Calm   1mph /  1.6km/h 86% 0in /  0.0mm 47 W/m2
08:07 62.6 °F /  17 °C 58.3 °F /  14.6 °C 30.1in /  1018.6hPa Calm     86% 0in /  0.0mm 46 W/m2
08:12 62.6 °F /  17 °C 58.6 °F /  14.8 °C 30.1in /  1019.0hPa East 0.9mph /  1.4km/h 1mph /  1.6km/h 87% 0in /  0.0mm 44 W/m2
08:17 62.6 °F /  17 °C 58.1 °F /  14.5 °C 30.1in /  1019.0hPa West 2mph /  3.2km/h 2mph /  3.2km/h 85% 0in /  0.0mm 51 W/m2
08:22 62.8 °F /  17.1 °C 57.6 °F /  14.2 °C 30.1in /  1019.0hPa WNW 2mph /  3.2km/h 6mph /  9.7km/h 83% 0in /  0.0mm 56 W/m2
08:27 62.8 °F /  17.1 °C 57.2 °F /  14 °C 30.1in /  1019.0hPa West 4mph /  6.4km/h 7mph /  11.3km/h 82% 0in /  0.0mm 65 W/m2
08:32 62.8 °F /  17.1 °C 57.2 °F /  14 °C 30.1in /  1018.6hPa WNW 2mph /  3.2km/h 6mph /  9.7km/h 82% 0in /  0.0mm 86 W/m2
08:37 62.8 °F /  17.1 °C 57.2 °F /  14 °C 30.1in /  1018.6hPa WNW 2.9mph /  4.7km/h 4mph /  6.4km/h 82% 0in /  0.0mm 113 W/m2
08:42 63 °F /  17.2 °C 57.4 °F /  14.1 °C 30.1in /  1018.6hPa West 2.9mph /  4.7km/h 3mph /  4.8km/h 82% 0in /  0.0mm 156 W/m2
08:47 63.1 °F /  17.3 °C 57.6 °F /  14.2 °C 30.1in /  1019.0hPa West 2.9mph /  4.7km/h 4mph /  6.4km/h 82% 0in /  0.0mm 190 W/m2
08:53 63.3 °F /  17.4 °C 57.7 °F /  14.3 °C 30.1in /  1019.0hPa WSW 2mph /  3.2km/h 2mph /  3.2km/h 82% 0in /  0.0mm 183 W/m2
08:58 63.5 °F /  17.5 °C 57.9 °F /  14.4 °C 30.1in /  1019.0hPa WNW 0.9mph /  1.4km/h 3mph /  4.8km/h 82% 0in /  0.0mm 142 W/m2
09:03 63.7 °F /  17.6 °C 57.7 °F /  14.3 °C 30.1in /  1018.6hPa WNW 4mph /  6.4km/h 4mph /  6.4km/h 81% 0in /  0.0mm 134 W/m2
09:08 63.7 °F /  17.6 °C 57.7 °F /  14.3 °C 30.1in /  1019.0hPa WNW 2mph /  3.2km/h 4mph /  6.4km/h 81% 0in /  0.0mm 132 W/m2
09:13 63.7 °F /  17.6 °C 57.7 °F /  14.3 °C 30.1in /  1019.0hPa West 2mph /  3.2km/h 7mph /  11.3km/h 81% 0in /  0.0mm 130 W/m2
09:18 63.7 °F /  17.6 °C 57.7 °F /  14.3 °C 30.1in /  1019.0hPa West 0.9mph /  1.4km/h 4mph /  6.4km/h 81% 0in /  0.0mm 137 W/m2
09:23 63.9 °F /  17.7 °C 57.6 °F /  14.2 °C 30.1in /  1019.0hPa West 0.9mph /  1.4km/h 7mph /  11.3km/h 80% 0in /  0.0mm 134 W/m2
09:28 63.7 °F /  17.6 °C 57.7 °F /  14.3 °C 30.1in /  1019.3hPa WSW 2.9mph /  4.7km/h 6mph /  9.7km/h 81% 0in /  0.0mm 134 W/m2
09:33 63.7 °F /  17.6 °C 58.1 °F /  14.5 °C 30.1in /  1019.3hPa WNW 0.9mph /  1.4km/h 7mph /  11.3km/h 82% 0in /  0.0mm 127 W/m2
09:38 63.5 °F /  17.5 °C 57.9 °F /  14.4 °C 30.1in /  1019.3hPa West 10.1mph /  16.3km/h 13mph /  20.9km/h 82% 0in /  0.0mm 125 W/m2
09:43 63.3 °F /  17.4 °C 57.7 °F /  14.3 °C 30.1in /  1019.3hPa West 2mph /  3.2km/h 6mph /  9.7km/h 82% 0in /  0.0mm 116 W/m2
09:48 63.3 °F /  17.4 °C 57.7 °F /  14.3 °C 30.1in /  1019.6hPa SW 4.9mph /  7.9km/h 13mph /  20.9km/h 82% 0in /  0.0mm 97 W/m2
09:53 63.3 °F /  17.4 °C 57.7 °F /  14.3 °C 30.1in /  1019.6hPa West 4mph /  6.4km/h 4mph /  6.4km/h 82% 0in /  0.0mm 104 W/m2
09:58 63.5 °F /  17.5 °C 57.9 °F /  14.4 °C 30.1in /  1019.6hPa WNW 2mph /  3.2km/h 3mph /  4.8km/h 82% 0in /  0.0mm 98 W/m2
10:03 63.5 °F /  17.5 °C 57.9 °F /  14.4 °C 30.1in /  1019.3hPa NW 2.9mph /  4.7km/h 5mph /  8km/h 82% 0in /  0.0mm 90 W/m2
10:08 63.5 °F /  17.5 °C 57.9 °F /  14.4 °C 30.1in /  1019.3hPa West 6.9mph /  11.1km/h 7mph /  11.3km/h 82% 0in /  0.0mm 84 W/m2
10:13 63.5 °F /  17.5 °C 57.9 °F /  14.4 °C 30.1in /  1019.3hPa WNW 2.9mph /  4.7km/h 4mph /  6.4km/h 82% 0in /  0.0mm 86 W/m2
10:18 63.5 °F /  17.5 °C 57.9 °F /  14.4 °C 30.1in /  1019.3hPa West 2mph /  3.2km/h 6mph /  9.7km/h 82% 0in /  0.0mm 88 W/m2
10:23 63.5 °F /  17.5 °C 57.9 °F /  14.4 °C 30.1in /  1019.3hPa WNW 2mph /  3.2km/h 4mph /  6.4km/h 82% 0in /  0.0mm 90 W/m2
10:28 63.5 °F /  17.5 °C 57.9 °F /  14.4 °C 30.1in /  1019.6hPa West 2.9mph /  4.7km/h 4mph /  6.4km/h 82% 0in /  0.0mm 88 W/m2
10:33 63.3 °F /  17.4 °C 58.1 °F /  14.5 °C 30.1in /  1019.6hPa WSW 2mph /  3.2km/h 4mph /  6.4km/h 83% 0in /  0.0mm 83 W/m2
10:38 63.3 °F /  17.4 °C 58.1 °F /  14.5 °C 30.1in /  1019.6hPa WNW 2.9mph /  4.7km/h 5mph /  8km/h 83% 0in /  0.0mm 83 W/m2
10:43 63.3 °F /  17.4 °C 58.1 °F /  14.5 °C 30.1in /  1019.6hPa NW 2mph /  3.2km/h 3mph /  4.8km/h 83% 0in /  0.0mm 83 W/m2
10:48 63.3 °F /  17.4 °C 58.5 °F /  14.7 °C 30.1in /  1019.6hPa West 0.9mph /  1.4km/h 5mph /  8km/h 84% 0in /  0.0mm 77 W/m2
10:53 63.3 °F /  17.4 °C 58.8 °F /  14.9 °C 30.1in /  1019.6hPa WNW 2mph /  3.2km/h 2mph /  3.2km/h 85% 0in /  0.0mm 76 W/m2
10:58 63.3 °F /  17.4 °C 58.8 °F /  14.9 °C 30.1in /  1019.6hPa West 2.9mph /  4.7km/h 6mph /  9.7km/h 85% 0in /  0.0mm 81 W/m2
11:03 63.1 °F /  17.3 °C 58.8 °F /  14.9 °C 30.1in /  1019.3hPa WSW 2.9mph /  4.7km/h 3mph /  4.8km/h 86% 0in /  0.0mm 90 W/m2
11:08 63.1 °F /  17.3 °C 58.8 °F /  14.9 °C 30.1in /  1019.6hPa West 2.9mph /  4.7km/h 5mph /  8km/h 86% 0in /  0.0mm 100 W/m2
11:13 63.1 °F /  17.3 °C 58.8 °F /  14.9 °C 30.1in /  1019.6hPa WSW 2mph /  3.2km/h 3mph /  4.8km/h 86% 0in /  0.0mm 127 W/m2
11:18 63.1 °F /  17.3 °C 59.2 °F /  15.1 °C 30.1in /  1019.6hPa WSW 2.9mph /  4.7km/h 5mph /  8km/h 87% 0in /  0.0mm 162 W/m2
11:23 63.1 °F /  17.3 °C 59.5 °F /  15.3 °C 30.1in /  1019.6hPa West 2mph /  3.2km/h 3mph /  4.8km/h 88% 0in /  0.0mm 153 W/m2
11:28 63.1 °F /  17.3 °C 59.2 °F /  15.1 °C 30.1in /  1019.6hPa SW 4mph /  6.4km/h 4mph /  6.4km/h 87% 0.01in /  0.2mm 188 W/m2
11:33 63.3 °F /  17.4 °C 59.7 °F /  15.4 °C 30.1in /  1019.6hPa West 2.9mph /  4.7km/h 5mph /  8km/h 88% 0.01in /  0.2mm 202 W/m2
11:38 63.3 °F /  17.4 °C 59.7 °F /  15.4 °C 30.1in /  1019.3hPa West 2mph /  3.2km/h 4mph /  6.4km/h 88% 0.01in /  0.2mm 227 W/m2
11:43 63.7 °F /  17.6 °C 60.1 °F /  15.6 °C 30.1in /  1019.3hPa WSW 2mph /  3.2km/h 5mph /  8km/h 88% 0.01in /  0.2mm 223 W/m2
11:48 63.9 °F /  17.7 °C 60.3 °F /  15.7 °C 30.1in /  1019.3hPa West 0.9mph /  1.4km/h 4mph /  6.4km/h 88% 0.01in /  0.2mm 260 W/m2
11:53 64.2 °F /  17.9 °C 59.9 °F /  15.5 °C 30.1in /  1019.3hPa NW 4mph /  6.4km/h 4mph /  6.4km/h 86% 0.01in /  0.2mm 248 W/m2
11:58 64.6 °F /  18.1 °C 59.9 °F /  15.5 °C 30.1in /  1019.3hPa WNW 2.9mph /  4.7km/h 3mph /  4.8km/h 85% 0.01in /  0.2mm 221 W/m2
12:03 64.8 °F /  18.2 °C 60.1 °F /  15.6 °C 30.1in /  1019.3hPa WNW 0.9mph /  1.4km/h 2mph /  3.2km/h 85% 0.01in /  0.2mm 202 W/m2
12:08 64.9 °F /  18.3 °C 60.3 °F /  15.7 °C 30.1in /  1019.6hPa West 2mph /  3.2km/h 3mph /  4.8km/h 85% 0.01in /  0.2mm 183 W/m2
12:13 65.1 °F /  18.4 °C 60.1 °F /  15.6 °C 30.1in /  1019.6hPa WSW 0.9mph /  1.4km/h 3mph /  4.8km/h 84% 0.01in /  0.2mm 151 W/m2
12:18 65.1 °F /  18.4 °C 60.4 °F /  15.8 °C 30.1in /  1019.6hPa West 2mph /  3.2km/h 4mph /  6.4km/h 85% 0.01in /  0.2mm 171 W/m2
12:23 65.1 °F /  18.4 °C 60.1 °F /  15.6 °C 30.1in /  1019.6hPa West 2mph /  3.2km/h 3mph /  4.8km/h 84% 0.01in /  0.2mm 258 W/m2
12:28 65.3 °F /  18.5 °C 60.1 °F /  15.6 °C 30.1in /  1019.6hPa Calm   4mph /  6.4km/h 83% 0in /  0.0mm 278 W/m2
12:33 65.7 °F /  18.7 °C 60.4 °F /  15.8 °C 30.1in /  1019.6hPa Calm     83% 0in /  0.0mm 262 W/m2
12:38 65.8 °F /  18.8 °C 59.5 °F /  15.3 °C 30.1in /  1019.6hPa Calm     80% 0in /  0.0mm 239 W/m2
12:43 66 °F /  18.9 °C 59.4 °F /  15.2 °C 30.1in /  1019.6hPa Calm   1mph /  1.6km/h 79% 0in /  0.0mm 269 W/m2
12:48 66.4 °F /  19.1 °C 60.1 °F /  15.6 °C 30.1in /  1019.6hPa Calm     80% 0in /  0.0mm 239 W/m2
12:53 66.7 °F /  19.3 °C 60.1 °F /  15.6 °C 30.1in /  1019.6hPa NW 0.9mph /  1.4km/h 2mph /  3.2km/h 79% 0in /  0.0mm 243 W/m2
12:58 66.9 °F /  19.4 °C 59.9 °F /  15.5 °C 30.1in /  1019.6hPa ESE 0.9mph /  1.4km/h 4mph /  6.4km/h 78% 0in /  0.0mm 260 W/m2
13:03 67.1 °F /  19.5 °C 60.1 °F /  15.6 °C 30.1in /  1019.6hPa ESE 2mph /  3.2km/h 2mph /  3.2km/h 78% 0in /  0.0mm 318 W/m2
13:08 67.3 °F /  19.6 °C 60.6 °F /  15.9 °C 30.1in /  1019.6hPa SE 2mph /  3.2km/h 4mph /  6.4km/h 79% 0in /  0.0mm 364 W/m2
13:13 67.5 °F /  19.7 °C 60.4 °F /  15.8 °C 30.1in /  1019.6hPa Calm   3mph /  4.8km/h 78% 0in /  0.0mm 490 W/m2
13:18 67.8 °F /  19.9 °C 61 °F /  16.1 °C 30.1in /  1019.6hPa ESE 2mph /  3.2km/h 3mph /  4.8km/h 79% 0in /  0.0mm 438 W/m2
13:23 67.8 °F /  19.9 °C 61.7 °F /  16.5 °C 30.1in /  1020.0hPa East 2mph /  3.2km/h 6mph /  9.7km/h 81% 0in /  0.0mm 348 W/m2
13:28 67.8 °F /  19.9 °C 61.7 °F /  16.5 °C 30.1in /  1020.0hPa SE 0.9mph /  1.4km/h 4mph /  6.4km/h 81% 0in /  0.0mm 373 W/m2
13:33 67.8 °F /  19.9 °C 61.7 °F /  16.5 °C 30.1in /  1020.0hPa Calm   3mph /  4.8km/h 81% 0in /  0.0mm 438 W/m2
13:38 67.8 °F /  19.9 °C 61.3 °F /  16.3 °C 30.1in /  1020.0hPa ENE 0.9mph /  1.4km/h 4mph /  6.4km/h 80% 0in /  0.0mm 323 W/m2
13:43 68 °F /  20 °C 61.9 °F /  16.6 °C 30.1in /  1019.6hPa Calm   2mph /  3.2km/h 81% 0in /  0.0mm 394 W/m2
13:48 68 °F /  20 °C 61.5 °F /  16.4 °C 30.1in /  1020.0hPa Calm   2mph /  3.2km/h 80% 0in /  0.0mm 301 W/m2
13:53 67.8 °F /  19.9 °C 61.7 °F /  16.5 °C 30.1in /  1020.0hPa East 0.9mph /  1.4km/h 2mph /  3.2km/h 81% 0in /  0.0mm 223 W/m2
13:58 67.6 °F /  19.8 °C 61 °F /  16.1 °C 30.1in /  1020.0hPa East 0.9mph /  1.4km/h 2mph /  3.2km/h 79% 0in /  0.0mm 179 W/m2
14:03 67.5 °F /  19.7 °C 61.3 °F /  16.3 °C 30.1in /  1020.0hPa ENE 2mph /  3.2km/h 4mph /  6.4km/h 81% 0in /  0.0mm 153 W/m2
14:08 67.3 °F /  19.6 °C 61.5 °F /  16.4 °C 30.1in /  1020.0hPa East 0.9mph /  1.4km/h 6mph /  9.7km/h 82% 0in /  0.0mm 141 W/m2
14:13 66.7 °F /  19.3 °C 61.3 °F /  16.3 °C 30.1in /  1020.0hPa Calm   2mph /  3.2km/h 83% 0in /  0.0mm 135 W/m2
14:18 66.6 °F /  19.2 °C 61.2 °F /  16.2 °C 30.1in /  1020.0hPa South 0.9mph /  1.4km/h 2mph /  3.2km/h 83% 0in /  0.0mm 121 W/m2
14:23 66.4 °F /  19.1 °C 61 °F /  16.1 °C 30.1in /  1020.0hPa ESE 2mph /  3.2km/h 3mph /  4.8km/h 83% 0in /  0.0mm 93 W/m2
14:28 66 °F /  18.9 °C 60.6 °F /  15.9 °C 30.1in /  1020.0hPa SE 0.9mph /  1.4km/h 2mph /  3.2km/h 83% 0in /  0.0mm 83 W/m2
14:33 65.8 °F /  18.8 °C 60.8 °F /  16 °C 30.1in /  1020.0hPa ENE 0.9mph /  1.4km/h 2mph /  3.2km/h 84% 0in /  0.0mm 111 W/m2
14:38 65.7 °F /  18.7 °C 61 °F /  16.1 °C 30.1in /  1020.0hPa Calm   4mph /  6.4km/h 85% 0in /  0.0mm 118 W/m2
14:43 65.7 °F /  18.7 °C 61.3 °F /  16.3 °C 30.1in /  1020.0hPa East 2mph /  3.2km/h 2mph /  3.2km/h 86% 0in /  0.0mm 98 W/m2
14:48 65.7 °F /  18.7 °C 61.7 °F /  16.5 °C 30.1in /  1020.0hPa Calm     87% 0.01in /  0.2mm 79 W/m2
14:53 65.3 °F /  18.5 °C 61.3 °F /  16.3 °C 30.1in /  1020.0hPa East 2mph /  3.2km/h 3mph /  4.8km/h 87% 0.01in /  0.2mm 77 W/m2
14:58 64.8 °F /  18.2 °C 60.8 °F /  16 °C 30.1in /  1020.0hPa NE 0.9mph /  1.4km/h 2mph /  3.2km/h 87% 0.01in /  0.2mm 88 W/m2
15:03 64.6 °F /  18.1 °C 61 °F /  16.1 °C 30.1in /  1020.3hPa Calm     88% 0.01in /  0.2mm 100 W/m2
15:08 64.2 °F /  17.9 °C 60.6 °F /  15.9 °C 30.1in /  1020.3hPa ENE 2mph /  3.2km/h 3mph /  4.8km/h 88% 0.02in /  0.5mm 120 W/m2
15:13 63.9 °F /  17.7 °C 60.6 °F /  15.9 °C 30.1in /  1020.3hPa ENE 0.9mph /  1.4km/h 3mph /  4.8km/h 89% 0.02in /  0.5mm 142 W/m2
15:18 63.7 °F /  17.6 °C 60.6 °F /  15.9 °C 30.1in /  1020.0hPa ENE 0.9mph /  1.4km/h 2mph /  3.2km/h 90% 0.04in /  1.0mm 135 W/m2
15:23 63.5 °F /  17.5 °C 60.8 °F /  16 °C 30.1in /  1020.0hPa East 2mph /  3.2km/h 3mph /  4.8km/h 91% 0.05in /  1.3mm 139 W/m2
15:28 63.3 °F /  17.4 °C 60.6 °F /  15.9 °C 30.1in /  1020.0hPa ESE 0.9mph /  1.4km/h 2mph /  3.2km/h 91% 0.06in /  1.5mm 142 W/m2
15:33 63.1 °F /  17.3 °C 60.4 °F /  15.8 °C 30.1in /  1020.0hPa Calm   2mph /  3.2km/h 91% 0.06in /  1.5mm 169 W/m2
15:38 63.1 °F /  17.3 °C 60.4 °F /  15.8 °C 30.1in /  1020.0hPa East 0.9mph /  1.4km/h 3mph /  4.8km/h 91% 0.06in /  1.5mm 206 W/m2
15:43 62.8 °F /  17.1 °C 59.2 °F /  15.1 °C 30.1in /  1020.0hPa Calm   1mph /  1.6km/h 88% 0.06in /  1.5mm 251 W/m2
15:48 63 °F /  17.2 °C 59.4 °F /  15.2 °C 30.1in /  1020.0hPa Calm   3mph /  4.8km/h 88% 0.06in /  1.5mm 352 W/m2
15:53 63.1 °F /  17.3 °C 59.5 °F /  15.3 °C 30.1in /  1019.6hPa Calm     88% 0.06in /  1.5mm 369 W/m2
15:58 63.5 °F /  17.5 °C 59.5 °F /  15.3 °C 30.1in /  1019.6hPa ENE 0.9mph /  1.4km/h 1mph /  1.6km/h 87% 0.06in /  1.5mm 274 W/m2
16:03 63.9 °F /  17.7 °C 60.3 °F /  15.7 °C 30.1in /  1019.6hPa Calm     88% 0.06in /  1.5mm 229 W/m2
16:08 64 °F /  17.8 °C 60.1 °F /  15.6 °C 30.1in /  1019.6hPa Calm   1mph /  1.6km/h 87% 0.06in /  1.5mm 221 W/m2
16:13 64.6 °F /  18.1 °C 61 °F /  16.1 °C 30.1in /  1019.6hPa Calm   1mph /  1.6km/h 88% 0.05in /  1.3mm 234 W/m2
16:18 64.6 °F /  18.1 °C 60.3 °F /  15.7 °C 30.1in /  1019.6hPa Calm   1mph /  1.6km/h 86% 0.03in /  0.8mm 221 W/m2
16:23 64.8 °F /  18.2 °C 60.8 °F /  16 °C 30.1in /  1019.6hPa SE 2mph /  3.2km/h 2mph /  3.2km/h 87% 0.02in /  0.5mm 199 W/m2
16:28 64.9 °F /  18.3 °C 60.6 °F /  15.9 °C 30.1in /  1019.6hPa Calm   2mph /  3.2km/h 86% 0.02in /  0.5mm 188 W/m2
16:33 64.9 °F /  18.3 °C 60.6 °F /  15.9 °C 30.1in /  1019.6hPa NE 0.9mph /  1.4km/h 1mph /  1.6km/h 86% 0.01in /  0.2mm 186 W/m2
16:38 64.9 °F /  18.3 °C 60.6 °F /  15.9 °C 30.1in /  1019.6hPa NNE 0.9mph /  1.4km/h 2mph /  3.2km/h 86% 0.01in /  0.2mm 186 W/m2
16:43 64.9 °F /  18.3 °C 61 °F /  16.1 °C 30.1in /  1019.6hPa NNW 0.9mph /  1.4km/h 2mph /  3.2km/h 87% 0in /  0.0mm 218 W/m2
16:48 64.9 °F /  18.3 °C 61 °F /  16.1 °C 30.1in /  1019.3hPa East 0.9mph /  1.4km/h 2mph /  3.2km/h 87% 0in /  0.0mm 160 W/m2
16:53 64.9 °F /  18.3 °C 61 °F /  16.1 °C 30.1in /  1019.3hPa ENE 0.9mph /  1.4km/h 1mph /  1.6km/h 87% 0in /  0.0mm 158 W/m2
16:58 64.9 °F /  18.3 °C 60.6 °F /  15.9 °C 30.1in /  1019.3hPa ENE 0.9mph /  1.4km/h 3mph /  4.8km/h 86% 0in /  0.0mm 165 W/m2
17:03 64.9 °F /  18.3 °C 60.6 °F /  15.9 °C 30.1in /  1019.3hPa East 2mph /  3.2km/h 3mph /  4.8km/h 86% 0in /  0.0mm 200 W/m2
17:08 64.9 °F /  18.3 °C 60.6 °F /  15.9 °C 30.1in /  1019.3hPa ENE 0.9mph /  1.4km/h 3mph /  4.8km/h 86% 0in /  0.0mm 232 W/m2
17:13 64.9 °F /  18.3 °C 60.3 °F /  15.7 °C 30.1in /  1019.3hPa ESE 2mph /  3.2km/h 3mph /  4.8km/h 85% 0in /  0.0mm 316 W/m2
17:18 65.3 °F /  18.5 °C 61 °F /  16.1 °C 30.1in /  1019.6hPa East 0.9mph /  1.4km/h 3mph /  4.8km/h 86% 0in /  0.0mm 316 W/m2
17:23 65.5 °F /  18.6 °C 60.8 °F /  16 °C 30.1in /  1019.6hPa ENE 2.9mph /  4.7km/h 4mph /  6.4km/h 85% 0in /  0.0mm 274 W/m2
17:28 65.7 °F /  18.7 °C 60.6 °F /  15.9 °C 30.1in /  1019.6hPa Calm   3mph /  4.8km/h 84% 0in /  0.0mm 278 W/m2
17:33 65.8 °F /  18.8 °C 60.8 °F /  16 °C 30.1in /  1019.6hPa ESE 2mph /  3.2km/h 4mph /  6.4km/h 84% 0in /  0.0mm 320 W/m2
17:38 66 °F /  18.9 °C 60.6 °F /  15.9 °C 30.1in /  1019.6hPa ENE 0.9mph /  1.4km/h 3mph /  4.8km/h 83% 0in /  0.0mm 360 W/m2
17:43 66.6 °F /  19.2 °C 61.5 °F /  16.4 °C 30.1in /  1019.6hPa ESE 0.9mph /  1.4km/h 1mph /  1.6km/h 84% 0in /  0.0mm 446 W/m2
17:48 66.9 °F /  19.4 °C 61.9 °F /  16.6 °C 30.1in /  1019.6hPa NNE 5mph /  8km/h 5mph /  8km/h 84% 0in /  0.0mm 306 W/m2
17:53 66.7 °F /  19.3 °C 60.1 °F /  15.6 °C 30.1in /  1019.6hPa North 2mph /  3.2km/h 3mph /  4.8km/h 79% 0in /  0.0mm 338 W/m2
17:58 66.9 °F /  19.4 °C 59.9 °F /  15.5 °C 30.1in /  1019.6hPa Calm   3mph /  4.8km/h 78% 0in /  0.0mm 373 W/m2
18:03 66.9 °F /  19.4 °C 59.9 °F /  15.5 °C 30.1in /  1019.6hPa Calm   4mph /  6.4km/h 78% 0in /  0.0mm 214 W/m2
18:08 66.7 °F /  19.3 °C 60.1 °F /  15.6 °C 30.1in /  1019.6hPa Calm   1mph /  1.6km/h 79% 0in /  0.0mm 190 W/m2
18:13 66.6 °F /  19.2 °C 59.9 °F /  15.5 °C 30.1in /  1019.3hPa ESE 0.9mph /  1.4km/h 2mph /  3.2km/h 79% 0in /  0.0mm 178 W/m2
18:18 66.2 °F /  19 °C 60.3 °F /  15.7 °C 30.1in /  1019.6hPa ESE 2mph /  3.2km/h 2mph /  3.2km/h 81% 0in /  0.0mm 185 W/m2
18:23 66 °F /  18.9 °C 60.6 °F /  15.9 °C 30.1in /  1019.6hPa ESE 0.9mph /  1.4km/h 2mph /  3.2km/h 83% 0in /  0.0mm 227 W/m2
18:28 66 °F /  18.9 °C 60.4 °F /  15.8 °C 30.1in /  1019.3hPa ESE 0.9mph /  1.4km/h 1mph /  1.6km/h 82% 0in /  0.0mm 418 W/m2
18:33 66.4 °F /  19.1 °C 60.1 °F /  15.6 °C 30.1in /  1019.3hPa ENE 2mph /  3.2km/h 3mph /  4.8km/h 80% 0in /  0.0mm 374 W/m2
18:38 66.9 °F /  19.4 °C 59.9 °F /  15.5 °C 30.1in /  1019.3hPa SE 0.9mph /  1.4km/h 2mph /  3.2km/h 78% 0in /  0.0mm 388 W/m2
18:43 67.6 °F /  19.8 °C 61.2 °F /  16.2 °C 30.1in /  1019.0hPa South 0.9mph /  1.4km/h 2mph /  3.2km/h 80% 0in /  0.0mm 339 W/m2
18:48 67.6 °F /  19.8 °C 58.6 °F /  14.8 °C 30.1in /  1019.0hPa Calm   1mph /  1.6km/h 73% 0in /  0.0mm 329 W/m2
18:53 67.8 °F /  19.9 °C 58.5 °F /  14.7 °C 30.1in /  1019.0hPa Calm   3mph /  4.8km/h 72% 0in /  0.0mm 236 W/m2
18:58 68 °F /  20 °C 59.4 °F /  15.2 °C 30.1in /  1019.0hPa Calm   1mph /  1.6km/h 74% 0in /  0.0mm 72 W/m2
19:03 67.3 °F /  19.6 °C 58.3 °F /  14.6 °C 30.1in /  1019.3hPa Calm   3mph /  4.8km/h 73% 0in /  0.0mm 49 W/m2
19:08 66.4 °F /  19.1 °C 59 °F /  15 °C 30.1in /  1019.6hPa Calm   1mph /  1.6km/h 77% 0in /  0.0mm 33 W/m2
19:13 65.7 °F /  18.7 °C 57.9 °F /  14.4 °C 30.1in /  1019.6hPa SSE 0.9mph /  1.4km/h 2mph /  3.2km/h 76% 0in /  0.0mm 16 W/m2
19:18 65.1 °F /  18.4 °C 58.1 °F /  14.5 °C 30.1in /  1019.6hPa Calm   1mph /  1.6km/h 78% 0in /  0.0mm 11 W/m2
19:23 64.6 °F /  18.1 °C 58.3 °F /  14.6 °C 30.1in /  1020.0hPa WNW 4mph /  6.4km/h 7mph /  11.3km/h 80% 0in /  0.0mm 5 W/m2
19:28 64 °F /  17.8 °C 58.5 °F /  14.7 °C 30.1in /  1020.0hPa WNW 0.9mph /  1.4km/h 4mph /  6.4km/h 82% 0in /  0.0mm 5 W/m2
19:33 63.9 °F /  17.7 °C 58.3 °F /  14.6 °C 30.1in /  1020.0hPa NW 0.9mph /  1.4km/h 7mph /  11.3km/h 82% 0in /  0.0mm 7 W/m2
19:38 63.9 °F /  17.7 °C 58.6 °F /  14.8 °C 30.1in /  1019.6hPa Calm   1mph /  1.6km/h 83% 0in /  0.0mm 9 W/m2
19:43 63.9 °F /  17.7 °C 58.6 °F /  14.8 °C 30.1in /  1020.0hPa NW 0.9mph /  1.4km/h 3mph /  4.8km/h 83% 0in /  0.0mm 9 W/m2
19:48 63.9 °F /  17.7 °C 59 °F /  15 °C 30.1in /  1020.0hPa SW 0.9mph /  1.4km/h 3mph /  4.8km/h 84% 0in /  0.0mm 12 W/m2
19:53 63.7 °F /  17.6 °C 59.4 °F /  15.2 °C 30.1in /  1020.0hPa Calm   1mph /  1.6km/h 86% 0in /  0.0mm 16 W/m2
19:58 63.3 °F /  17.4 °C 59.4 °F /  15.2 °C 30.1in /  1020.0hPa Calm   3mph /  4.8km/h 87% 0in /  0.0mm 21 W/m2
20:03 63.3 °F /  17.4 °C 59.7 °F /  15.4 °C 30.1in /  1020.0hPa Calm   2mph /  3.2km/h 88% 0.01in /  0.2mm 23 W/m2
20:08 63.1 °F /  17.3 °C 59.9 °F /  15.5 °C 30.1in /  1020.0hPa Calm     89% 0.02in /  0.5mm 26 W/m2
20:13 63 °F /  17.2 °C 59.7 °F /  15.4 °C 30.1in /  1020.0hPa Calm   1mph /  1.6km/h 89% 0.02in /  0.5mm 28 W/m2
20:18 62.8 °F /  17.1 °C 59.7 °F /  15.4 °C 30.1in /  1019.6hPa Calm     90% 0.02in /  0.5mm 28 W/m2
20:23 62.6 °F /  17 °C 59.9 °F /  15.5 °C 30.1in /  1019.6hPa Calm     91% 0.03in /  0.8mm 26 W/m2
20:28 62.2 °F /  16.8 °C 59.5 °F /  15.3 °C 30.1in /  1020.0hPa West 0.9mph /  1.4km/h 2mph /  3.2km/h 91% 0.03in /  0.8mm 23 W/m2
20:33 62.2 °F /  16.8 °C 59.9 °F /  15.5 °C 30.1in /  1020.0hPa West 2.9mph /  4.7km/h 3mph /  4.8km/h 92% 0.03in /  0.8mm 21 W/m2
20:38 61.9 °F /  16.6 °C 59.2 °F /  15.1 °C 30.1in /  1020.0hPa Calm   1mph /  1.6km/h 91% 0.03in /  0.8mm 19 W/m2
20:43 61.9 °F /  16.6 °C 59.5 °F /  15.3 °C 30.1in /  1020.0hPa West 2mph /  3.2km/h 2mph /  3.2km/h 92% 0.03in /  0.8mm 19 W/m2
20:48 61.5 °F /  16.4 °C 58.8 °F /  14.9 °C 30.1in /  1020.0hPa Calm   1mph /  1.6km/h 91% 0.03in /  0.8mm 19 W/m2
20:53 61.3 °F /  16.3 °C 59 °F /  15 °C 30.1in /  1019.6hPa Calm     92% 0.04in /  1.0mm 39 W/m2
20:58 61.3 °F /  16.3 °C 59 °F /  15 °C 30.1in /  1019.6hPa Calm     92% 0.04in /  1.0mm 25 W/m2
21:03 61.3 °F /  16.3 °C 59 °F /  15 °C 30.1in /  1019.6hPa West 0.9mph /  1.4km/h 1mph /  1.6km/h 92% 0.03in /  0.8mm 26 W/m2
21:08 61.3 °F /  16.3 °C 59 °F /  15 °C 30.1in /  1019.6hPa West 2mph /  3.2km/h 2mph /  3.2km/h 92% 0.02in /  0.5mm 32 W/m2
21:13 61.2 °F /  16.2 °C 59.2 °F /  15.1 °C 30.1in /  1019.6hPa Calm   2mph /  3.2km/h 93% 0.02in /  0.5mm 28 W/m2
21:18 61.2 °F /  16.2 °C 59.2 °F /  15.1 °C 30.1in /  1020.0hPa West 0.9mph /  1.4km/h 2mph /  3.2km/h 93% 0.02in /  0.5mm 18 W/m2
21:23 61 °F /  16.1 °C 59 °F /  15 °C 30.1in /  1020.0hPa West 2mph /  3.2km/h 2mph /  3.2km/h 93% 0.01in /  0.2mm 12 W/m2
21:28 60.8 °F /  16 °C 58.8 °F /  14.9 °C 30.1in /  1020.0hPa WSW 0.9mph /  1.4km/h 3mph /  4.8km/h 93% 0.01in /  0.2mm 9 W/m2
21:33 60.4 °F /  15.8 °C 58.5 °F /  14.7 °C 30.1in /  1020.3hPa West 0.9mph /  1.4km/h 3mph /  4.8km/h 93% 0.01in /  0.2mm 7 W/m2
21:38 60.3 °F /  15.7 °C 57.9 °F /  14.4 °C 30.1in /  1020.3hPa Calm   1mph /  1.6km/h 92% 0.01in /  0.2mm 5 W/m2
21:43 59.9 °F /  15.5 °C 57.6 °F /  14.2 °C 30.1in /  1020.0hPa Calm   3mph /  4.8km/h 92% 0.01in /  0.2mm 0 W/m2
21:48 59.7 °F /  15.4 °C 57.4 °F /  14.1 °C 30.1in /  1020.3hPa West 0.9mph /  1.4km/h 4mph /  6.4km/h 92% 0.01in /  0.2mm 0 W/m2
21:53 59.5 °F /  15.3 °C 56.8 °F /  13.8 °C 30.1in /  1020.3hPa WSW 2.9mph /  4.7km/h 5mph /  8km/h 91% 0in /  0.0mm 0 W/m2
21:58 59.5 °F /  15.3 °C 56.8 °F /  13.8 °C 30.1in /  1020.3hPa SW 2.9mph /  4.7km/h 6mph /  9.7km/h 91% 0in /  0.0mm 0 W/m2
22:03 59.5 °F /  15.3 °C 56.7 °F /  13.7 °C 30.1in /  1020.3hPa WSW 4.9mph /  7.9km/h 8mph /  12.9km/h 90% 0in /  0.0mm 0 W/m2
22:08 59.7 °F /  15.4 °C 56.8 °F /  13.8 °C 30.1in /  1020.3hPa WNW 2.9mph /  4.7km/h 8mph /  12.9km/h 90% 0in /  0.0mm 0 W/m2
22:13 59.7 °F /  15.4 °C 56.8 °F /  13.8 °C 30.1in /  1020.3hPa WNW 2.9mph /  4.7km/h 7mph /  11.3km/h 90% 0in /  0.0mm 0 W/m2
22:18 59.7 °F /  15.4 °C 56.8 °F /  13.8 °C 30.1in /  1020.7hPa West 2mph /  3.2km/h 5mph /  8km/h 90% 0in /  0.0mm 0 W/m2
22:23 59.7 °F /  15.4 °C 56.8 °F /  13.8 °C 30.1in /  1020.7hPa West 2mph /  3.2km/h 7mph /  11.3km/h 90% 0in /  0.0mm 0 W/m2
22:28 59.7 °F /  15.4 °C 56.5 °F /  13.6 °C 30.1in /  1020.7hPa North 0.9mph /  1.4km/h 4mph /  6.4km/h 89% 0in /  0.0mm 0 W/m2
22:33 59.9 °F /  15.5 °C 56.7 °F /  13.7 °C 30.1in /  1020.7hPa ESE 0.9mph /  1.4km/h 5mph /  8km/h 89% 0in /  0.0mm 0 W/m2
22:38 60.1 °F /  15.6 °C 57.2 °F /  14 °C 30.1in /  1020.7hPa Calm     90% 0in /  0.0mm 0 W/m2
22:43 59.9 °F /  15.5 °C 57 °F /  13.9 °C 30.1in /  1020.7hPa Calm     90% 0in /  0.0mm 0 W/m2
22:48 59.7 °F /  15.4 °C 57 °F /  13.9 °C 30.1in /  1020.7hPa Calm   1mph /  1.6km/h 91% 0in /  0.0mm 0 W/m2
22:53 59.5 °F /  15.3 °C 56.8 °F /  13.8 °C 30.1in /  1020.7hPa Calm   2mph /  3.2km/h 91% 0in /  0.0mm 0 W/m2
22:58 59.5 °F /  15.3 °C 57.2 °F /  14 °C 30.1in /  1020.7hPa WNW 2mph /  3.2km/h 3mph /  4.8km/h 92% 0in /  0.0mm 0 W/m2
23:03 59.4 °F /  15.2 °C 57 °F /  13.9 °C 30.1in /  1020.7hPa Calm   3mph /  4.8km/h 92% 0in /  0.0mm 0 W/m2
23:08 59.2 °F /  15.1 °C 56.8 °F /  13.8 °C 30.1in /  1020.7hPa WNW 0.9mph /  1.4km/h 4mph /  6.4km/h 92% 0in /  0.0mm 0 W/m2
23:13 59.2 °F /  15.1 °C 56.8 °F /  13.8 °C 30.1in /  1020.7hPa Calm   2mph /  3.2km/h 92% 0in /  0.0mm 0 W/m2
23:18 59 °F /  15 °C 56.7 °F /  13.7 °C 30.1in /  1020.7hPa Calm   3mph /  4.8km/h 92% 0in /  0.0mm 0 W/m2
23:23 58.8 °F /  14.9 °C 56.5 °F /  13.6 °C 30.1in /  1020.7hPa NW 0.9mph /  1.4km/h 3mph /  4.8km/h 92% 0in /  0.0mm 0 W/m2
23:28 58.8 °F /  14.9 °C 56.5 °F /  13.6 °C 30.1in /  1020.7hPa WNW 2mph /  3.2km/h 2mph /  3.2km/h 92% 0in /  0.0mm 0 W/m2
23:33 58.8 °F /  14.9 °C 56.5 °F /  13.6 °C 30.1in /  1020.7hPa West 0.9mph /  1.4km/h 3mph /  4.8km/h 92% 0in /  0.0mm 0 W/m2
23:38 58.6 °F /  14.8 °C 56.3 °F /  13.5 °C 30.1in /  1020.7hPa West 0.9mph /  1.4km/h 2mph /  3.2km/h 92% 0in /  0.0mm 0 W/m2
23:43 58.5 °F /  14.7 °C 56.1 °F /  13.4 °C 30.1in /  1020.7hPa Calm   3mph /  4.8km/h 92% 0in /  0.0mm 0 W/m2
23:48 58.5 °F /  14.7 °C 56.5 °F /  13.6 °C 30.1in /  1020.7hPa Calm     93% 0in /  0.0mm 0 W/m2
23:53 58.5 °F /  14.7 °C 56.5 °F /  13.6 °C 30.1in /  1020.7hPa Calm   1mph /  1.6km/h 93% 0in /  0.0mm 0 W/m2
23:58 58.3 °F /  14.6 °C 56.3 °F /  13.5 °C 30.1in /  1020.7hPa Calm     93% 0in /  0.0mm 0 W/m2
Juneau County Weather
Compliments of Weather Underground - 4 mb